Time;durP1;ratioP1;P1;durP2;ratioP2;P2;SDS_P1;SDS_P2;PMS_P1;PMS_P2;Temp;Humidity;BMP_temperature;BMP_pressure;BME280_temperature;BME280_humidity;BME280_pressure;Samples;Min_cycle;Max_cycle;Signal;HPM_P1;HPM_P2
2023/06/06 00:01:21;;;;;;;1.30;1.10;;;;;;;16.40;91.78;99488.78;5075567;28;20257;-77
2023/06/06 00:03:48;;;;;;;1.63;1.10;;;;;;;16.34;92.47;99504.00;5074112;28;20208;-77
2023/06/06 00:06:16;;;;;;;4.70;1.10;;;;;;;16.32;92.75;99496.41;5074502;28;20291;-77
2023/06/06 00:08:42;;;;;;;2.17;1.17;;;;;;;16.27;92.36;99508.91;5074331;28;20241;-77
2023/06/06 00:11:10;;;;;;;1.77;1.30;;;;;;;16.24;92.51;99504.84;5075853;28;20224;-77
2023/06/06 00:13:38;;;;;;;1.47;1.17;;;;;;;16.22;92.38;99505.91;5074705;28;20231;-77
2023/06/06 00:16:05;;;;;;;1.20;1.10;;;;;;;16.25;92.91;99508.22;5073985;28;20789;-77
2023/06/06 00:18:33;;;;;;;1.90;1.30;;;;;;;16.17;93.03;99508.09;5076465;28;20208;-77
2023/06/06 00:21:00;;;;;;;1.43;1.20;;;;;;;16.14;93.97;99514.31;5077227;28;20245;-77
2023/06/06 00:23:27;;;;;;;3.13;1.40;;;;;;;16.06;93.82;99507.28;5075432;28;20199;-77
2023/06/06 00:25:54;;;;;;;1.60;1.10;;;;;;;16.04;94.01;99504.00;5078122;28;20216;-77
2023/06/06 00:28:21;;;;;;;1.87;1.30;;;;;;;16.09;93.87;99506.19;5076807;28;20234;-77
2023/06/06 00:30:48;;;;;;;1.33;1.00;;;;;;;16.15;93.75;99510.00;5072980;28;20223;-77
2023/06/06 00:33:14;;;;;;;1.50;1.20;;;;;;;16.09;93.88;99500.22;5077418;28;20205;-77
2023/06/06 00:35:43;;;;;;;1.70;1.10;;;;;;;16.04;94.70;99503.22;5075815;28;20285;-77
2023/06/06 00:38:10;;;;;;;2.27;1.30;;;;;;;15.97;94.85;99502.09;5077207;28;20428;-77
2023/06/06 00:40:36;;;;;;;1.30;1.13;;;;;;;15.87;95.42;99493.56;5075858;28;20226;-77
2023/06/06 00:43:03;;;;;;;1.33;1.00;;;;;;;15.79;95.51;99489.06;5075660;28;20230;-77
2023/06/06 00:45:30;;;;;;;2.00;1.20;;;;;;;15.78;95.97;99484.88;5079416;28;20227;-77
2023/06/06 00:47:57;;;;;;;1.70;1.20;;;;;;;15.80;95.71;99486.38;5080201;28;20663;-77
2023/06/06 00:50:25;;;;;;;1.50;0.97;;;;;;;15.79;95.63;99489.88;5084961;28;20230;-77
2023/06/06 00:52:55;;;;;;;1.77;1.07;;;;;;;15.79;96.31;99499.38;5081691;28;20247;-77
2023/06/06 00:55:22;;;;;;;1.40;1.30;;;;;;;15.73;96.09;99489.59;5083149;28;20660;-77
2023/06/06 00:57:51;;;;;;;2.53;1.30;;;;;;;15.64;96.97;99486.03;5084348;28;20207;-77
2023/06/06 01:00:19;;;;;;;1.97;0.90;;;;;;;15.62;96.78;99483.59;5080565;28;20257;-77
2023/06/06 01:02:47;;;;;;;3.33;1.10;;;;;;;15.63;96.65;99485.22;5080319;28;20217;-77
2023/06/06 01:05:16;;;;;;;2.20;1.03;;;;;;;15.63;96.27;99482.66;5080550;28;20222;-77
2023/06/06 01:07:47;;;;;;;1.50;1.10;;;;;;;15.67;96.49;99484.97;5081353;28;20584;-77
2023/06/06 01:10:15;;;;;;;2.03;1.10;;;;;;;15.67;96.40;99480.59;5080471;28;20229;-77
2023/06/06 01:12:50;;;;;;;1.50;1.10;;;;;;;15.68;97.79;99484.03;5079653;28;20638;-77
2023/06/06 01:15:22;;;;;;;2.07;1.27;;;;;;;15.60;97.13;99482.91;5080966;28;20295;-77
2023/06/06 01:17:50;;;;;;;1.67;1.20;;;;;;;15.53;96.80;99484.41;5079874;28;20198;-77
2023/06/06 01:20:19;;;;;;;1.10;0.90;;;;;;;15.49;97.06;99482.22;5082615;28;20250;-77
2023/06/06 01:22:48;;;;;;;3.30;1.47;;;;;;;15.51;96.01;99483.72;5082494;28;20622;-77
2023/06/06 01:25:19;;;;;;;3.53;1.10;;;;;;;15.52;96.18;99481.94;5079209;28;20300;-77
2023/06/06 01:27:46;;;;;;;1.80;1.27;;;;;;;15.48;96.23;99481.41;5082574;28;20209;-77
2023/06/06 01:30:14;;;;;;;2.53;1.17;;;;;;;15.45;97.49;99481.66;5082481;28;20749;-77
2023/06/06 01:32:47;;;;;;;1.73;1.10;;;;;;;15.43;97.86;99478.41;5081826;28;20285;-78
2023/06/06 01:35:24;;;;;;;2.10;1.03;;;;;;;15.35;98.29;99476.47;5080631;28;20221;-77
2023/06/06 01:38:00;;;;;;;1.57;1.30;;;;;;;15.27;99.05;99478.06;5081698;28;20204;-77
2023/06/06 01:40:31;;;;;;;1.53;0.97;;;;;;;15.22;99.54;99480.25;5080605;28;20263;-77
2023/06/06 01:42:58;;;;;;;1.70;1.20;;;;;;;15.14;100.00;99483.47;5083075;28;20583;-77
2023/06/06 01:45:29;;;;;;;2.47;1.27;;;;;;;15.02;100.00;99474.22;5085075;28;20221;-77
2023/06/06 01:47:57;;;;;;;2.33;1.10;;;;;;;14.97;100.00;99476.34;5080955;28;20196;-77
2023/06/06 01:50:24;;;;;;;1.20;1.00;;;;;;;14.90;100.00;99476.06;5080183;28;20229;-77
2023/06/06 01:52:54;;;;;;;1.70;1.10;;;;;;;14.84;100.00;99474.00;5079156;28;20261;-77
2023/06/06 01:55:21;;;;;;;1.87;1.30;;;;;;;14.74;100.00;99480.84;5080083;28;20767;-77
2023/06/06 01:57:48;;;;;;;2.40;1.17;;;;;;;14.73;100.00;99479.22;5083502;28;20200;-78
2023/06/06 02:00:17;;;;;;;2.07;1.33;;;;;;;14.72;100.00;99473.28;5078908;28;20219;-77
2023/06/06 02:02:44;;;;;;;1.53;1.20;;;;;;;14.61;100.00;99481.88;5081586;28;20195;-77
2023/06/06 02:05:12;;;;;;;1.63;1.23;;;;;;;14.58;100.00;99482.13;5079454;28;20315;-77
2023/06/06 02:07:41;;;;;;;2.00;1.33;;;;;;;14.57;100.00;99480.47;5082512;28;20280;-77
2023/06/06 02:10:10;;;;;;;1.30;1.10;;;;;;;14.44;100.00;99487.56;5081271;28;20292;-77
2023/06/06 02:12:37;;;;;;;1.67;1.10;;;;;;;14.42;100.00;99486.84;5078291;28;20240;-77
2023/06/06 02:15:05;;;;;;;2.67;1.30;;;;;;;14.39;100.00;99490.50;5077000;28;20655;-77
2023/06/06 02:17:32;;;;;;;1.53;1.13;;;;;;;14.36;100.00;99487.38;5081438;28;20260;-77
2023/06/06 02:19:58;;;;;;;3.13;1.03;;;;;;;14.32;100.00;99486.81;5079793;28;20216;-77
2023/06/06 02:22:25;;;;;;;2.47;1.10;;;;;;;14.22;100.00;99489.31;5081259;28;20679;-77
2023/06/06 02:24:52;;;;;;;4.27;1.33;;;;;;;14.14;100.00;99494.25;5077716;28;20246;-77
2023/06/06 02:27:21;;;;;;;1.53;0.97;;;;;;;14.08;100.00;99492.19;5077444;28;20694;-77
2023/06/06 02:29:48;;;;;;;1.03;0.93;;;;;;;14.05;100.00;99495.00;5079378;28;20291;-77
2023/06/06 02:32:15;;;;;;;2.93;1.27;;;;;;;14.00;100.00;99500.50;5078357;28;20203;-77
2023/06/06 02:34:42;;;;;;;1.23;0.97;;;;;;;13.91;100.00;99497.84;5081719;28;20199;-78
2023/06/06 02:37:09;;;;;;;2.30;1.10;;;;;;;13.89;100.00;99504.88;5080647;28;20647;-77
2023/06/06 02:39:36;;;;;;;4.53;1.10;;;;;;;13.82;100.00;99504.53;5080099;28;20228;-78
2023/06/06 02:42:03;;;;;;;6.33;1.13;;;;;;;13.77;100.00;99506.66;5076989;28;20202;-77
2023/06/06 02:44:33;;;;;;;2.00;1.20;;;;;;;13.79;100.00;99505.59;5079022;28;20363;-78
2023/06/06 02:47:00;;;;;;;1.50;1.23;;;;;;;13.76;100.00;99505.84;5078381;28;20262;-77
2023/06/06 02:49:27;;;;;;;1.40;1.10;;;;;;;13.75;100.00;99508.50;5078883;28;20233;-77
2023/06/06 02:51:55;;;;;;;1.70;1.17;;;;;;;13.76;100.00;99510.97;5079722;28;20228;-78
2023/06/06 02:54:22;;;;;;;2.77;1.00;;;;;;;13.75;100.00;99513.66;5079668;28;20199;-78
2023/06/06 02:56:49;;;;;;;4.13;1.20;;;;;;;13.71;100.00;99515.66;5077613;28;20222;-77
2023/06/06 02:59:15;;;;;;;3.53;1.40;;;;;;;13.68;100.00;99515.91;5078903;28;20662;-78
2023/06/06 03:01:48;;;;;;;2.17;1.20;;;;;;;13.66;100.00;99519.53;5079151;28;20600;-77
2023/06/06 03:04:16;;;;;;;2.87;1.20;;;;;;;13.63;100.00;99510.28;5080793;28;20206;-78
2023/06/06 03:06:43;;;;;;;1.10;1.00;;;;;;;13.62;100.00;99511.25;5080480;28;20275;-77
2023/06/06 03:09:10;;;;;;;2.80;1.10;;;;;;;13.57;100.00;99510.78;5080041;28;20224;-77
2023/06/06 03:11:37;;;;;;;1.37;0.93;;;;;;;13.57;100.00;99509.00;5079017;28;20225;-77
2023/06/06 03:14:04;;;;;;;1.33;1.00;;;;;;;13.55;100.00;99507.50;5076950;28;20259;-78
2023/06/06 03:16:34;;;;;;;1.30;1.00;;;;;;;13.51;100.00;99503.56;5075272;28;20240;-78
2023/06/06 03:19:03;;;;;;;1.90;1.40;;;;;;;13.42;100.00;99499.13;5076644;28;20197;-77
2023/06/06 03:21:30;;;;;;;1.30;0.90;;;;;;;13.42;100.00;99502.50;5079079;28;20713;-78
2023/06/06 03:23:57;;;;;;;2.17;1.13;;;;;;;13.41;100.00;99505.19;5077035;28;20201;-78
2023/06/06 03:26:26;;;;;;;1.30;1.00;;;;;;;13.42;100.00;99506.84;5078965;28;20252;-77
2023/06/06 03:28:53;;;;;;;1.17;1.07;;;;;;;13.37;100.00;99507.19;5076729;28;20230;-77
2023/06/06 03:31:23;;;;;;;1.77;1.00;;;;;;;13.36;100.00;99503.78;5079551;28;20233;-77
2023/06/06 03:33:50;;;;;;;2.17;1.30;;;;;;;13.36;100.00;99503.78;5078070;28;20208;-77
2023/06/06 03:36:19;;;;;;;1.20;1.00;;;;;;;13.34;100.00;99500.53;5079697;28;20231;-77
2023/06/06 03:38:46;;;;;;;1.73;1.20;;;;;;;13.31;100.00;99498.19;5080328;28;20232;-77
2023/06/06 03:41:13;;;;;;;1.00;0.90;;;;;;;13.33;100.00;99501.47;5078432;28;20584;-77
2023/06/06 03:43:42;;;;;;;2.10;1.17;;;;;;;13.36;100.00;99500.41;5076198;28;20209;-77
2023/06/06 03:46:09;;;;;;;3.27;1.10;;;;;;;13.38;100.00;99500.28;5074964;28;20418;-77
2023/06/06 03:48:35;;;;;;;2.13;1.10;;;;;;;13.38;100.00;99496.00;5074619;28;20266;-77
2023/06/06 03:51:02;;;;;;;1.50;1.10;;;;;;;13.38;100.00;99495.16;5075444;28;20228;-77
2023/06/06 03:53:30;;;;;;;2.53;0.87;;;;;;;13.39;100.00;99496.81;5076583;28;20197;-77
2023/06/06 03:55:58;;;;;;;1.50;1.10;;;;;;;13.34;100.00;99492.81;5077920;28;20226;-77
2023/06/06 03:58:26;;;;;;;1.53;1.00;;;;;;;13.41;100.00;99507.75;5078631;28;20209;-77
2023/06/06 04:00:53;;;;;;;2.07;1.20;;;;;;;13.44;100.00;99504.94;5078312;28;20226;-77
2023/06/06 04:03:20;;;;;;;1.90;1.10;;;;;;;13.40;100.00;99513.84;5076046;28;20251;-78
2023/06/06 04:05:48;;;;;;;2.83;1.27;;;;;;;13.40;100.00;99508.69;5078199;28;20230;-77
2023/06/06 04:08:15;;;;;;;3.23;1.40;;;;;;;13.40;100.00;99514.66;5076056;28;20226;-77
2023/06/06 04:10:43;;;;;;;1.90;1.20;;;;;;;13.44;100.00;99513.50;5076046;28;20309;-77
2023/06/06 04:13:10;;;;;;;2.07;1.23;;;;;;;13.51;100.00;99518.97;5077485;28;20197;-77
2023/06/06 04:15:37;;;;;;;1.90;1.20;;;;;;;13.57;100.00;99516.72;5075777;28;20251;-77
2023/06/06 04:18:04;;;;;;;3.57;1.33;;;;;;;13.59;100.00;99524.31;5075663;28;20496;-78
2023/06/06 04:20:32;;;;;;;3.80;1.13;;;;;;;13.64;100.00;99518.81;5078386;28;20303;-78
2023/06/06 04:23:00;;;;;;;4.17;1.50;;;;;;;13.74;100.00;99527.44;5075238;28;20212;-78
2023/06/06 04:25:26;;;;;;;2.23;1.23;;;;;;;13.79;100.00;99521.00;5072766;28;20313;-77
2023/06/06 04:27:55;;;;;;;4.67;0.97;;;;;;;13.85;100.00;99530.00;5077161;28;20239;-78
2023/06/06 04:30:23;;;;;;;1.93;1.30;;;;;;;13.87;100.00;99522.16;5079714;28;20238;-78
2023/06/06 04:32:50;;;;;;;1.90;1.30;;;;;;;13.94;100.00;99525.88;5076220;28;20669;-77
2023/06/06 04:35:18;;;;;;;2.33;1.17;;;;;;;14.00;100.00;99527.97;5076051;28;20309;-78
2023/06/06 04:37:47;;;;;;;3.97;1.27;;;;;;;14.10;100.00;99523.72;5075932;28;20201;-78
2023/06/06 04:40:15;;;;;;;1.50;1.10;;;;;;;14.25;100.00;99516.53;5075868;28;20219;-78
2023/06/06 04:42:42;;;;;;;3.20;1.37;;;;;;;14.43;100.00;99514.25;5076023;28;20232;-77
2023/06/06 04:45:12;;;;;;;1.70;1.20;;;;;;;14.60;100.00;99510.28;5076436;28;20219;-78
2023/06/06 04:47:44;;;;;;;2.97;1.30;;;;;;;14.70;100.00;99512.00;5075524;28;20198;-77
2023/06/06 04:50:11;;;;;;;3.73;1.60;;;;;;;14.79;100.00;99519.91;5075011;28;20229;-78
2023/06/06 04:52:38;;;;;;;2.40;1.27;;;;;;;14.71;100.00;99526.47;5076237;28;20224;-78
2023/06/06 04:55:07;;;;;;;2.90;1.30;;;;;;;14.83;100.00;99516.13;5075844;28;20222;-78
2023/06/06 04:57:34;;;;;;;3.63;1.10;;;;;;;14.89;100.00;99525.91;5073815;28;20672;-78
2023/06/06 05:00:01;;;;;;;3.17;1.30;;;;;;;14.89;100.00;99525.91;5073891;28;20215;-78
2023/06/06 05:02:29;;;;;;;1.63;1.20;;;;;;;15.02;100.00;99526.53;5079571;28;20277;-78
2023/06/06 05:04:58;;;;;;;2.07;1.20;;;;;;;15.16;100.00;99536.50;5075750;28;20215;-77
2023/06/06 05:07:25;;;;;;;1.83;1.17;;;;;;;15.31;100.00;99539.53;5076635;28;20698;-77
2023/06/06 05:09:52;;;;;;;1.93;1.00;;;;;;;15.52;100.00;99554.09;5074598;28;20234;-78
2023/06/06 05:12:19;;;;;;;1.30;1.10;;;;;;;15.80;100.00;99552.59;5076762;28;20200;-78
2023/06/06 05:14:46;;;;;;;1.43;1.10;;;;;;;16.04;100.00;99560.75;5076586;28;20215;-77
2023/06/06 05:17:15;;;;;;;1.73;1.10;;;;;;;16.28;100.00;99559.56;5076309;28;20579;-78
2023/06/06 05:19:43;;;;;;;2.73;1.10;;;;;;;16.33;96.37;99557.38;5076274;28;20210;-77
2023/06/06 05:22:10;;;;;;;1.40;1.20;;;;;;;16.55;95.46;99568.38;5074486;28;20260;-78
2023/06/06 05:24:37;;;;;;;1.47;1.07;;;;;;;16.63;95.19;99565.91;5074870;28;20195;-77
2023/06/06 05:27:05;;;;;;;1.60;1.20;;;;;;;16.82;94.69;99555.59;5074768;28;20209;-77
2023/06/06 05:29:32;;;;;;;1.97;1.40;;;;;;;16.92;95.43;99561.53;5073733;28;20229;-78
2023/06/06 05:31:58;;;;;;;2.00;1.40;;;;;;;17.01;93.36;99554.72;5073647;28;20203;-77
2023/06/06 05:34:25;;;;;;;1.83;1.30;;;;;;;17.11;92.19;99570.22;5075854;28;20202;-78
2023/06/06 05:36:53;;;;;;;1.90;1.30;;;;;;;17.20;94.85;99564.19;5079823;28;20620;-78
2023/06/06 05:39:22;;;;;;;1.67;1.20;;;;;;;17.36;92.71;99556.63;5077288;28;20199;-78
2023/06/06 05:41:50;;;;;;;3.43;0.97;;;;;;;17.57;90.93;99555.56;5077475;28;20722;-78
2023/06/06 05:44:18;;;;;;;1.70;1.10;;;;;;;17.63;88.12;99557.63;5078389;28;20652;-78
2023/06/06 05:46:47;;;;;;;1.43;1.10;;;;;;;17.80;88.34;99562.03;5076135;28;20216;-79
2023/06/06 05:49:14;;;;;;;4.37;1.10;;;;;;;17.90;88.82;99566.34;5075342;28;20638;-78
2023/06/06 05:51:41;;;;;;;3.90;1.33;;;;;;;17.94;88.53;99563.28;5075673;28;20270;-78
2023/06/06 05:54:14;;;;;;;1.83;1.20;;;;;;;18.14;86.63;99563.16;5078566;28;20666;-78
2023/06/06 05:56:41;;;;;;;1.40;1.00;;;;;;;18.23;86.09;99555.31;5079157;28;20602;-78
2023/06/06 05:59:08;;;;;;;4.90;1.20;;;;;;;18.40;86.08;99551.09;5077866;28;20206;-78
2023/06/06 06:01:36;;;;;;;1.73;1.03;;;;;;;18.62;86.54;99551.59;5077819;28;20277;-78
2023/06/06 06:04:03;;;;;;;3.87;1.07;;;;;;;18.73;83.26;99549.59;5077291;28;20201;-79
2023/06/06 06:06:31;;;;;;;2.63;1.30;;;;;;;18.91;83.45;99559.09;5076549;28;20227;-78
2023/06/06 06:09:02;;;;;;;1.53;1.10;;;;;;;18.82;83.09;99558.25;5079072;28;20210;-78
2023/06/06 06:11:30;;;;;;;2.27;1.07;;;;;;;19.00;81.82;99571.13;5077380;28;20258;-77
2023/06/06 06:13:58;;;;;;;2.80;1.20;;;;;;;19.23;76.93;99576.63;5076214;28;20222;-78
2023/06/06 06:16:25;;;;;;;1.13;0.90;;;;;;;19.52;79.66;99578.84;5075657;28;20265;-78
2023/06/06 06:18:51;;;;;;;1.60;1.10;;;;;;;19.74;80.88;99584.47;5076042;28;20232;-79
2023/06/06 06:21:19;;;;;;;2.50;1.63;;;;;;;19.87;83.00;99590.03;5075057;28;20217;-78
2023/06/06 06:23:46;;;;;;;1.80;1.20;;;;;;;19.99;82.72;99593.94;5076457;28;20764;-78
2023/06/06 06:26:13;;;;;;;1.77;1.00;;;;;;;20.18;82.12;99586.81;5074128;28;20620;-80
2023/06/06 06:28:41;;;;;;;2.73;1.30;;;;;;;20.37;78.81;99593.50;5074432;28;20229;-80
2023/06/06 06:31:08;;;;;;;1.37;1.17;;;;;;;20.45;78.11;99586.53;5075127;28;20235;-79
2023/06/06 06:33:35;;;;;;;2.40;1.17;;;;;;;20.64;75.20;99582.00;5076713;28;20239;-82
2023/06/06 06:36:02;;;;;;;2.17;1.30;;;;;;;20.73;77.64;99587.03;5073712;28;20224;-79
2023/06/06 06:38:29;;;;;;;2.73;1.20;;;;;;;20.83;70.44;99594.66;5075979;28;20269;-79
2023/06/06 06:40:56;;;;;;;1.83;1.20;;;;;;;20.93;70.59;99597.88;5074562;28;20230;-79
2023/06/06 06:43:23;;;;;;;1.53;1.20;;;;;;;21.07;73.10;99596.41;5075005;28;20220;-80
2023/06/06 06:45:51;;;;;;;1.63;1.27;;;;;;;21.22;73.94;99586.13;5073689;28;20220;-79
2023/06/06 06:48:18;;;;;;;1.40;1.20;;;;;;;21.29;71.61;99588.84;5073780;28;20300;-79
2023/06/06 06:50:45;;;;;;;1.27;0.93;;;;;;;21.42;73.36;99586.56;5073478;28;20687;-79
2023/06/06 06:53:13;;;;;;;1.40;0.93;;;;;;;21.44;70.52;99588.03;5073277;28;20204;-79
2023/06/06 06:55:41;;;;;;;2.83;1.10;;;;;;;21.61;72.22;99591.38;5073871;28;20347;-79
2023/06/06 06:58:07;;;;;;;1.40;1.10;;;;;;;21.78;68.97;99589.50;5074462;28;20225;-79
2023/06/06 07:00:34;;;;;;;2.23;1.30;;;;;;;21.80;65.69;99592.75;5075450;28;20230;-79
2023/06/06 07:03:03;;;;;;;1.27;0.87;;;;;;;22.00;64.21;99594.91;5074168;28;20212;-79
2023/06/06 07:05:30;;;;;;;1.73;1.20;;;;;;;21.82;63.38;99597.78;5073499;28;20656;-79
2023/06/06 07:07:58;;;;;;;2.60;1.23;;;;;;;21.85;65.69;99600.84;5073667;28;20209;-79
2023/06/06 07:10:26;;;;;;;1.95;1.25;;;;;;;22.17;66.46;99604.28;5073929;28;20706;-80
2023/06/06 07:12:53;;;;;;;1.92;1.20;;;;;;;22.55;65.74;99609.53;5074069;28;20203;-79
2023/06/06 07:15:21;;;;;;;3.78;1.10;;;;;;;22.69;61.44;99595.75;5074810;28;20218;-78
2023/06/06 07:17:49;;;;;;;1.45;1.30;;;;;;;22.72;63.33;99595.38;5075973;28;20581;-79
2023/06/06 07:20:19;;;;;;;2.60;1.70;;;;;;;22.83;61.79;99600.16;5074959;28;20241;-79
2023/06/06 07:22:46;;;;;;;1.27;1.17;;;;;;;22.80;62.90;99595.28;5074593;28;20203;-78
2023/06/06 07:25:14;;;;;;;1.85;1.25;;;;;;;23.10;62.02;99592.75;5075311;28;20284;-80
2023/06/06 07:27:41;;;;;;;3.58;1.23;;;;;;;22.95;60.04;99597.13;5073030;28;20650;-78
2023/06/06 07:30:12;;;;;;;1.90;1.20;;;;;;;23.14;61.02;99583.56;5073262;28;20325;-79
2023/06/06 07:32:41;;;;;;;1.40;1.05;;;;;;;23.44;64.30;99588.78;5075270;28;20595;-78
2023/06/06 07:35:09;;;;;;;1.27;1.08;;;;;;;23.63;56.99;99597.84;5076246;28;20245;-79
2023/06/06 07:37:37;;;;;;;3.03;1.63;;;;;;;23.75;54.60;99593.00;5075660;28;20235;-78
2023/06/06 07:40:05;;;;;;;2.13;1.38;;;;;;;23.90;55.85;99589.34;5074777;28;20250;-78
2023/06/06 07:42:32;;;;;;;1.05;0.95;;;;;;;24.02;56.87;99581.03;5075614;28;20681;-78
2023/06/06 07:44:59;;;;;;;2.03;1.15;;;;;;;23.83;55.71;99577.22;5079815;28;20219;-78
2023/06/06 07:47:26;;;;;;;1.42;1.05;;;;;;;23.78;57.89;99574.34;5079003;28;20270;-77
2023/06/06 07:49:53;;;;;;;1.80;1.20;;;;;;;23.87;57.49;99574.03;5075126;28;20223;-77
2023/06/06 07:52:20;;;;;;;1.67;1.10;;;;;;;24.02;58.29;99576.59;5076878;28;20209;-78
2023/06/06 07:54:48;;;;;;;1.38;1.20;;;;;;;24.20;57.26;99572.75;5078438;28;20302;-77
2023/06/06 07:57:16;;;;;;;1.30;1.00;;;;;;;24.20;55.58;99581.38;5077903;28;20257;-78
2023/06/06 07:59:43;;;;;;;1.50;1.10;;;;;;;24.17;53.98;99573.94;5078376;28;20195;-78
2023/06/06 08:02:10;;;;;;;4.05;1.70;;;;;;;24.34;52.37;99579.72;5077247;28;20209;-78
2023/06/06 08:04:37;;;;;;;1.98;1.50;;;;;;;24.53;54.99;99584.34;5079438;28;20209;-77
2023/06/06 08:07:04;;;;;;;3.00;1.70;;;;;;;24.81;54.03;99586.13;5074933;28;20721;-77
2023/06/06 08:09:31;;;;;;;2.85;1.88;;;;;;;24.90;53.84;99585.00;5077585;28;20205;-78
2023/06/06 08:12:00;;;;;;;3.78;1.40;;;;;;;24.89;53.39;99583.38;5077064;28;20318;-77
2023/06/06 08:14:26;;;;;;;2.50;1.40;;;;;;;25.05;52.23;99593.53;5074936;28;20198;-78
2023/06/06 08:16:53;;;;;;;2.95;1.60;;;;;;;25.05;55.35;99590.94;5075782;28;20652;-77
2023/06/06 08:19:20;;;;;;;3.42;1.60;;;;;;;25.09;49.99;99593.97;5077832;28;20635;-77
2023/06/06 08:21:47;;;;;;;1.98;1.20;;;;;;;25.22;51.00;99590.63;5076253;28;20263;-77
2023/06/06 08:24:13;;;;;;;2.15;1.30;;;;;;;25.26;49.72;99584.81;5073972;28;20203;-78
2023/06/06 08:26:40;;;;;;;2.28;1.65;;;;;;;25.34;51.39;99575.19;5072717;28;20214;-78
2023/06/06 08:29:08;;;;;;;2.83;1.70;;;;;;;25.30;51.79;99580.81;5075081;28;20293;-76
2023/06/06 08:31:35;;;;;;;1.80;1.42;;;;;;;25.46;51.24;99584.91;5073253;28;20234;-79
2023/06/06 08:34:03;;;;;;;1.65;1.10;;;;;;;25.69;49.95;99583.81;5075576;28;20202;-78
2023/06/06 08:36:29;;;;;;;2.72;1.30;;;;;;;25.82;50.08;99585.63;5076789;28;20219;-77
2023/06/06 08:38:56;;;;;;;1.90;1.10;;;;;;;25.95;50.28;99578.66;5077995;28;20191;-78
2023/06/06 08:41:26;;;;;;;2.00;1.25;;;;;;;25.95;48.82;99573.41;5073886;28;20218;-78
2023/06/06 08:43:54;;;;;;;4.85;1.48;;;;;;;26.22;48.64;99570.81;5075247;28;20347;-78
2023/06/06 08:46:24;;;;;;;3.30;1.33;;;;;;;26.16;47.56;99574.25;5074801;28;20222;-77
2023/06/06 08:48:53;;;;;;;2.85;1.45;;;;;;;26.34;48.71;99571.84;5075131;28;20225;-78
2023/06/06 08:51:27;;;;;;;3.00;1.42;;;;;;;26.54;50.17;99577.09;5078245;28;20238;-79
2023/06/06 08:53:56;;;;;;;2.03;1.23;;;;;;;26.77;48.32;99574.06;5077326;28;20206;-78
2023/06/06 08:56:23;;;;;;;1.80;1.23;;;;;;;26.72;48.33;99576.47;5074965;28;20312;-77
2023/06/06 08:58:51;;;;;;;1.45;1.30;;;;;;;26.73;47.38;99575.47;5073449;28;20202;-76
2023/06/06 09:01:19;;;;;;;4.35;1.35;;;;;;;26.93;45.14;99569.38;5072615;28;20599;-78
2023/06/06 09:03:53;;;;;;;2.97;1.52;;;;;;;27.11;43.36;99572.16;5074875;28;20203;-80
2023/06/06 09:06:20;;;;;;;2.17;1.48;;;;;;;27.35;44.67;99557.56;5072484;28;20781;-80
2023/06/06 09:08:48;;;;;;;2.28;1.40;;;;;;;27.56;45.26;99564.34;5072728;28;20195;-79
2023/06/06 09:11:17;;;;;;;3.33;1.40;;;;;;;27.29;40.75;99564.47;5074881;28;20230;-80
2023/06/06 09:13:44;;;;;;;1.85;1.20;;;;;;;27.38;40.34;99566.84;5075752;28;20278;-79
2023/06/06 09:16:12;;;;;;;1.75;1.40;;;;;;;27.52;42.69;99563.97;5075264;28;20283;-79
2023/06/06 09:18:39;;;;;;;5.03;1.80;;;;;;;27.57;40.78;99565.94;5074853;28;20331;-80
2023/06/06 09:21:07;;;;;;;2.92;1.48;;;;;;;27.79;40.82;99570.94;5074467;28;20221;-81
2023/06/06 09:23:34;;;;;;;2.10;1.50;;;;;;;27.84;37.24;99576.34;5074515;28;20271;-79
2023/06/06 09:26:01;;;;;;;2.03;1.38;;;;;;;27.81;37.83;99582.00;5074122;28;20226;-80
2023/06/06 09:28:38;;;;;;;2.75;1.65;;;;;;;28.02;38.45;99568.56;5074949;28;20210;-80
2023/06/06 09:31:25;;;;;;;3.47;1.70;;;;;;;28.20;38.64;99576.50;5074740;28;20230;-78
2023/06/06 09:33:53;;;;;;;2.40;1.42;;;;;;;27.90;35.26;99586.81;5077556;28;20233;-78
2023/06/06 09:36:23;;;;;;;2.03;1.30;;;;;;;27.51;35.74;99582.53;5077637;28;20706;-78
2023/06/06 09:38:51;;;;;;;2.63;1.67;;;;;;;27.38;36.50;99575.53;5079302;28;20198;-79
2023/06/06 09:41:18;;;;;;;1.67;1.40;;;;;;;27.24;37.73;99577.41;5076936;28;20214;-79
2023/06/06 09:43:45;;;;;;;2.75;1.45;;;;;;;27.43;38.47;99567.03;5080187;28;20270;-78
2023/06/06 09:46:16;;;;;;;2.50;1.50;;;;;;;27.36;36.82;99568.88;5076740;28;20219;-78
2023/06/06 09:48:43;;;;;;;3.30;1.40;;;;;;;27.24;40.83;99559.03;5076821;28;20670;-80
2023/06/06 09:51:11;;;;;;;5.57;1.40;;;;;;;27.37;38.70;99562.59;5075211;28;20294;-78
2023/06/06 09:53:40;;;;;;;3.13;1.70;;;;;;;27.58;36.60;99572.81;5082053;28;20266;-78
2023/06/06 09:56:08;;;;;;;2.42;1.70;;;;;;;27.76;36.61;99562.41;5075301;28;20295;-78
2023/06/06 09:58:36;;;;;;;3.28;1.58;;;;;;;28.02;40.11;99557.25;5078395;28;20198;-77
2023/06/06 10:01:04;;;;;;;2.97;1.60;;;;;;;28.23;37.93;99569.22;5080238;28;20244;-78
2023/06/06 10:03:32;;;;;;;2.55;1.23;;;;;;;28.44;40.47;99550.44;5081869;28;20559;-78
2023/06/06 10:05:59;;;;;;;2.35;1.48;;;;;;;28.52;35.28;99559.91;5084007;28;20227;-78
2023/06/06 10:08:29;;;;;;;2.65;1.65;;;;;;;28.65;39.14;99554.50;5078852;28;20206;-78
2023/06/06 10:10:57;;;;;;;2.20;1.40;;;;;;;28.82;36.77;99552.09;5081508;28;20241;-77
2023/06/06 10:13:27;;;;;;;2.53;1.50;;;;;;;28.99;36.91;99552.34;5081368;28;20199;-78
2023/06/06 10:15:55;;;;;;;2.55;1.65;;;;;;;29.14;36.41;99549.38;5081204;28;20221;-78
2023/06/06 10:18:22;;;;;;;1.85;1.52;;;;;;;29.21;38.49;99550.09;5082616;28;20202;-78
2023/06/06 10:20:50;;;;;;;1.92;1.48;;;;;;;29.38;34.26;99545.84;5077922;28;20544;-78
2023/06/06 10:23:16;;;;;;;2.65;1.33;;;;;;;29.26;33.27;99542.31;5078940;28;20203;-78
2023/06/06 10:25:45;;;;;;;2.17;1.40;;;;;;;29.46;33.04;99542.06;5082174;28;20215;-77
2023/06/06 10:28:18;;;;;;;5.50;1.40;;;;;;;29.55;33.76;99536.28;5081789;28;20238;-78
2023/06/06 10:30:57;;;;;;;2.65;1.42;;;;;;;29.62;31.96;99535.38;5082126;28;20601;-77
2023/06/06 10:33:36;;;;;;;2.20;1.58;;;;;;;29.78;33.15;99537.41;5081036;28;20237;-78
2023/06/06 10:36:04;;;;;;;2.70;1.50;;;;;;;29.72;30.60;99530.38;5081116;28;20223;-77
2023/06/06 10:38:34;;;;;;;2.03;1.60;;;;;;;29.53;31.31;99522.53;5082060;28;20748;-78
2023/06/06 10:41:00;;;;;;;2.15;1.42;;;;;;;29.49;30.37;99525.81;5076712;28;20214;-78
2023/06/06 10:43:55;;;;;;;2.63;1.63;;;;;;;29.59;33.32;99514.75;5079518;28;20199;-77
2023/06/06 10:46:23;;;;;;;1.92;1.40;;;;;;;29.71;31.71;99505.06;5078167;28;20223;-78
2023/06/06 10:48:58;;;;;;;2.88;1.75;;;;;;;29.82;30.76;99504.31;5079696;28;20199;-78
2023/06/06 10:51:36;;;;;;;3.30;1.80;;;;;;;29.89;30.92;99510.25;5078983;28;20242;-78
2023/06/06 10:54:20;;;;;;;2.17;1.63;;;;;;;29.90;31.48;99500.50;5078861;28;20201;-78
2023/06/06 10:56:48;;;;;;;2.05;1.52;;;;;;;29.80;31.16;99501.06;5080056;28;20219;-78
2023/06/06 10:59:17;;;;;;;2.30;1.45;;;;;;;29.86;32.56;99502.81;5079090;28;20194;-78
2023/06/06 11:01:45;;;;;;;2.33;1.65;;;;;;;29.97;31.12;99502.03;5078307;28;20214;-78
2023/06/06 11:04:18;;;;;;;1.42;1.27;;;;;;;30.06;30.03;99497.22;5078559;28;20230;-78
2023/06/06 11:06:46;;;;;;;2.55;1.55;;;;;;;29.91;29.71;99492.38;5079687;28;20467;-78
2023/06/06 11:09:22;;;;;;;2.63;1.60;;;;;;;29.73;29.34;99487.19;5080654;28;20598;-78
2023/06/06 11:11:49;;;;;;;2.15;1.63;;;;;;;29.75;30.90;99482.50;5077538;28;20262;-77
2023/06/06 11:14:22;;;;;;;2.00;1.60;;;;;;;29.84;30.51;99480.34;5079508;28;20203;-78
2023/06/06 11:16:59;;;;;;;3.20;1.70;;;;;;;30.07;33.24;99484.84;5074731;28;20222;-78
2023/06/06 11:19:32;;;;;;;3.55;1.90;;;;;;;30.11;33.59;99480.72;5075819;28;20283;-78
2023/06/06 11:21:59;;;;;;;2.00;1.40;;;;;;;30.08;30.83;99484.63;5077954;28;20611;-78
2023/06/06 11:24:33;;;;;;;2.88;1.83;;;;;;;30.05;32.74;99481.59;5079799;28;20202;-77
2023/06/06 11:27:00;;;;;;;1.90;1.50;;;;;;;30.14;32.70;99469.72;5077376;28;20256;-78
2023/06/06 11:29:32;;;;;;;2.55;1.67;;;;;;;29.90;30.30;99469.66;5079194;28;20206;-79
2023/06/06 11:31:59;;;;;;;2.13;1.70;;;;;;;29.98;31.21;99466.69;5075916;28;20249;-78
2023/06/06 11:34:26;;;;;;;2.70;1.60;;;;;;;29.91;29.79;99459.97;5079158;28;20199;-78
2023/06/06 11:36:53;;;;;;;2.65;1.80;;;;;;;29.90;32.69;99456.50;5077724;28;20219;-77